createdAt,value
2022-12-20T12:21:32.329Z,100325.84
2022-12-20T12:26:36.336Z,100316.81
2022-12-20T12:31:58.107Z,100308.44
2022-12-20T12:37:05.431Z,100288.28
2022-12-20T12:42:14.541Z,100290.84
2022-12-20T12:47:24.915Z,100298.38
2022-12-20T12:52:36.228Z,100298.44
2022-12-20T12:57:55.861Z,100292.25
2022-12-20T13:02:57.592Z,100297.41
2022-12-20T13:07:59.428Z,100303.53
2022-12-20T13:13:01.865Z,100301.78
2022-12-20T13:18:09.337Z,100285.50
2022-12-20T13:23:10.783Z,100274.91
2022-12-20T13:28:21.605Z,100263.41
2022-12-20T13:33:23.074Z,100272.22
2022-12-20T13:38:30.392Z,100287.94
2022-12-20T13:43:41.827Z,100267.97
2022-12-20T13:48:46.391Z,100258.25
2022-12-20T13:54:00.242Z,100271.50
2022-12-20T13:59:12.554Z,100263.06
2022-12-20T14:04:14.970Z,100263.53
2022-12-20T14:09:37.762Z,100264.00
2022-12-20T14:14:44.299Z,100263.84
2022-12-20T14:19:45.903Z,100262.19
2022-12-20T14:24:47.480Z,100249.75
2022-12-20T14:29:49.465Z,100248.63
2022-12-20T14:34:51.378Z,100243.69
2022-12-20T14:40:00.602Z,100229.50
2022-12-20T14:45:05.739Z,100225.75
2022-12-20T14:50:22.063Z,100226.09
2022-12-20T14:55:34.745Z,100228.78
2022-12-20T15:00:36.456Z,100228.00
2022-12-20T15:05:51.788Z,100226.50
2022-12-20T15:10:54.806Z,100231.81
2022-12-20T15:15:59.159Z,100224.75
2022-12-20T15:21:16.852Z,100224.56
2022-12-20T15:26:22.126Z,100217.28
2022-12-20T15:31:32.639Z,100223.84
2022-12-20T15:36:35.119Z,100229.41
2022-12-20T15:41:38.311Z,100216.16
2022-12-20T15:46:40.028Z,100220.75
2022-12-20T15:51:42.608Z,100222.59
2022-12-20T15:56:44.164Z,100229.13
2022-12-20T16:01:45.814Z,100232.66
2022-12-20T16:06:49.660Z,100235.28
2022-12-20T16:11:51.543Z,100228.50
2022-12-20T16:16:53.096Z,100233.94
2022-12-20T16:21:54.559Z,100235.00
2022-12-20T16:26:56.138Z,100233.97
2022-12-20T16:31:57.777Z,100232.66
2022-12-20T16:36:59.385Z,100232.81
2022-12-20T16:42:01.030Z,100230.31
2022-12-20T16:47:02.621Z,100220.25
2022-12-20T16:52:05.288Z,100213.09
2022-12-20T16:57:06.816Z,100208.66
2022-12-20T17:02:26.163Z,100202.59
2022-12-20T17:07:28.049Z,100200.06
2022-12-20T17:12:29.498Z,100201.44
2022-12-20T17:17:30.920Z,100199.16
2022-12-20T17:27:52.483Z,100200.50
2022-12-20T17:32:54.275Z,100204.34
2022-12-20T17:37:56.662Z,100206.56
2022-12-20T17:42:58.160Z,100204.75
2022-12-20T17:47:59.920Z,100205.88
2022-12-20T17:53:01.560Z,100204.28
2022-12-20T17:58:03.024Z,100201.41
2022-12-20T18:03:04.621Z,100200.03
2022-12-20T18:08:06.397Z,100192.00
2022-12-20T18:13:08.384Z,100188.66
2022-12-20T18:18:09.909Z,100180.06
2022-12-20T18:23:11.344Z,100185.66
2022-12-20T18:28:12.850Z,100176.97
2022-12-20T18:33:14.372Z,100182.84
2022-12-20T18:38:18.713Z,100185.97
2022-12-20T18:43:20.250Z,100187.84
2022-12-20T18:48:25.991Z,100188.38
2022-12-20T18:53:27.614Z,100192.63
2022-12-20T18:58:29.140Z,100190.06
2022-12-20T19:03:31.005Z,100183.16
2022-12-20T19:08:32.870Z,100190.00
2022-12-20T19:13:34.760Z,100174.34
2022-12-20T19:18:36.366Z,100166.66
2022-12-20T19:23:39.507Z,100170.06
2022-12-20T19:28:42.499Z,100170.28
2022-12-20T19:33:47.011Z,100179.50
2022-12-20T19:38:51.657Z,100168.13
2022-12-20T19:43:53.516Z,100164.78
2022-12-20T19:48:55.923Z,100167.16
2022-12-20T19:53:58.499Z,100165.47
2022-12-20T19:59:00.676Z,100160.41
2022-12-20T20:04:02.299Z,100151.94
2022-12-20T20:09:04.081Z,100159.72
2022-12-20T20:14:05.638Z,100154.59
2022-12-20T20:19:07.214Z,100155.41
2022-12-20T20:24:08.735Z,100144.06
2022-12-20T20:29:10.400Z,100148.72
2022-12-20T20:34:11.881Z,100150.00
2022-12-20T20:39:13.329Z,100141.34
2022-12-20T20:44:14.947Z,100142.94
2022-12-20T20:49:16.374Z,100135.13
2022-12-20T20:54:17.834Z,100135.88
2022-12-20T20:59:19.388Z,100132.88
2022-12-20T21:04:20.861Z,100127.59
2022-12-20T21:09:22.296Z,100125.91
2022-12-20T21:14:43.806Z,100121.81
2022-12-20T21:19:45.189Z,100114.91
2022-12-20T21:24:46.702Z,100114.09
2022-12-20T21:29:53.315Z,100106.06
2022-12-20T21:34:57.902Z,100103.34
2022-12-20T21:40:02.852Z,100084.84
2022-12-20T21:45:04.900Z,100088.97
2022-12-20T21:50:07.001Z,100083.03
2022-12-20T21:55:08.967Z,100084.84
2022-12-20T22:00:10.881Z,100077.78
2022-12-20T22:05:12.402Z,100081.84
2022-12-20T22:10:14.051Z,100079.66
2022-12-20T22:15:15.571Z,100079.94
2022-12-20T22:20:17.108Z,100075.78
2022-12-20T22:25:18.624Z,100074.78
2022-12-20T22:30:20.065Z,100078.59
2022-12-20T22:35:23.143Z,100076.53
2022-12-20T22:40:24.745Z,100073.06
2022-12-20T22:45:26.326Z,100078.28
2022-12-20T22:50:27.843Z,100078.91
2022-12-20T22:55:29.357Z,100079.31
2022-12-20T23:00:31.163Z,100064.28
2022-12-20T23:05:32.643Z,100080.50
2022-12-20T23:10:34.221Z,100073.16
2022-12-20T23:15:36.217Z,100070.75
2022-12-20T23:20:37.683Z,100071.75
2022-12-20T23:25:39.219Z,100075.88
2022-12-20T23:30:40.795Z,100072.31
2022-12-20T23:35:42.306Z,100066.72
2022-12-20T23:40:43.937Z,100065.06
2022-12-20T23:45:45.544Z,100064.22
2022-12-20T23:50:58.639Z,100073.25
2022-12-20T23:56:18.501Z,100061.75
